Time;durP1;ratioP1;P1;durP2;ratioP2;P2;SDS_P1;SDS_P2;PMS_P1;PMS_P2;Temp;Humidity;BMP_temperature;BMP_pressure;BME280_temperature;BME280_humidity;BME280_pressure;Samples;Min_cycle;Max_cycle;Signal;HPM_P1;HPM_P2
2024/02/27 00:00:32;;;;;;;0.50;0.50;;;;;;;6.07;68.62;101771.06;5053183;28;20029;-77
2024/02/27 00:02:58;;;;;;;0.20;0.20;;;;;;;6.06;68.68;101774.59;5069173;28;20035;-77
2024/02/27 00:05:25;;;;;;;0.10;0.10;;;;;;;6.07;68.46;101777.22;5062286;28;20488;-78
2024/02/27 00:07:51;;;;;;;0.10;0.10;;;;;;;6.03;68.70;101769.25;5060247;28;20079;-78
2024/02/27 00:10:18;;;;;;;0.10;0.10;;;;;;;6.05;68.32;101776.31;5059120;28;20033;-78
2024/02/27 00:12:44;;;;;;;0.10;0.10;;;;;;;6.00;68.50;101775.38;5057910;28;20039;-78
2024/02/27 00:15:10;;;;;;;0.15;0.15;;;;;;;6.03;68.54;101783.31;5058445;28;20404;-79
2024/02/27 00:17:36;;;;;;;0.20;0.20;;;;;;;5.98;68.67;101771.78;5057928;28;20021;-79
2024/02/27 00:20:04;;;;;;;0.13;0.13;;;;;;;6.01;68.84;101782.41;5053151;28;20037;-77
2024/02/27 00:22:30;;;;;;;1.00;0.82;;;;;;;5.97;68.66;101781.44;5055010;28;20025;-77
2024/02/27 00:24:56;;;;;;;0.13;0.13;;;;;;;5.98;68.57;101784.94;5054162;28;20025;-76
2024/02/27 00:27:22;;;;;;;0.20;0.20;;;;;;;5.96;68.62;101789.31;5055181;28;20025;-77
2024/02/27 00:29:48;;;;;;;0.10;0.10;;;;;;;5.89;68.68;101785.69;5054913;28;20079;-77
2024/02/27 00:32:15;;;;;;;0.55;0.55;;;;;;;5.85;69.05;101786.53;5055283;28;20041;-78
2024/02/27 00:34:41;;;;;;;0.20;0.20;;;;;;;5.85;68.67;101791.78;5055282;28;20496;-78
2024/02/27 00:37:07;;;;;;;0.10;0.10;;;;;;;5.84;68.67;101790.00;5056385;28;20048;-77
2024/02/27 00:39:33;;;;;;;0.10;0.10;;;;;;;5.78;68.83;101782.94;5055970;28;20047;-78
2024/02/27 00:42:01;;;;;;;0.13;0.13;;;;;;;5.77;68.68;101790.78;5054758;28;20028;-77
2024/02/27 00:44:27;;;;;;;0.20;0.20;;;;;;;5.74;68.81;101796.88;5053383;28;20029;-76
2024/02/27 00:46:54;;;;;;;0.10;0.10;;;;;;;5.76;68.70;101800.41;5051182;28;20037;-77
2024/02/27 00:49:20;;;;;;;0.20;0.20;;;;;;;5.70;68.91;101807.34;5054087;28;20057;-79
2024/02/27 00:51:46;;;;;;;0.10;0.10;;;;;;;5.65;69.37;101810.75;5054612;28;20032;-76
2024/02/27 00:54:12;;;;;;;0.35;0.35;;;;;;;5.69;69.31;101802.94;5057262;28;20033;-77
2024/02/27 00:56:38;;;;;;;0.80;0.80;;;;;;;5.70;69.50;101807.34;5058913;28;20026;-77
2024/02/27 00:59:05;;;;;;;0.17;0.17;;;;;;;5.69;69.40;101810.81;5048734;28;20029;-77
2024/02/27 01:01:31;;;;;;;0.10;0.10;;;;;;;5.70;69.46;101797.69;5062151;28;20029;-77
2024/02/27 01:03:57;;;;;;;0.10;0.10;;;;;;;5.67;69.49;101808.19;5061433;28;20044;-77
2024/02/27 01:06:24;;;;;;;0.10;0.10;;;;;;;5.60;70.01;101815.06;5061511;28;20124;-77
2024/02/27 01:08:50;;;;;;;0.10;0.10;;;;;;;5.67;69.94;101789.78;5061218;28;20032;-77
2024/02/27 01:11:16;;;;;;;0.10;0.10;;;;;;;5.69;69.72;101797.69;5061553;28;20033;-78
2024/02/27 01:13:42;;;;;;;0.20;0.20;;;;;;;5.69;69.88;101795.03;5055862;28;20111;-79
2024/02/27 01:16:08;;;;;;;0.20;0.20;;;;;;;5.66;70.06;101801.16;5059049;28;20092;-79
2024/02/27 01:18:35;;;;;;;0.10;0.10;;;;;;;5.66;70.05;101802.00;5061952;28;20021;-78
2024/02/27 01:21:02;;;;;;;0.30;0.30;;;;;;;5.60;70.03;101806.31;5062534;28;20025;-79
2024/02/27 01:23:28;;;;;;;0.10;0.10;;;;;;;5.65;69.91;101804.63;5062446;28;20056;-79
2024/02/27 01:25:54;;;;;;;0.10;0.10;;;;;;;5.63;70.01;101803.72;5061697;28;20029;-79
2024/02/27 01:28:20;;;;;;;0.20;0.20;;;;;;;5.62;69.92;101807.19;5061945;28;20029;-79
2024/02/27 01:30:46;;;;;;;0.13;0.13;;;;;;;5.63;69.84;101816.84;5061908;28;20025;-79
2024/02/27 01:33:13;;;;;;;0.17;0.17;;;;;;;5.63;69.80;101815.13;5061869;28;20029;-79
2024/02/27 01:35:39;;;;;;;0.20;0.20;;;;;;;5.62;69.79;101817.72;5061289;28;20067;-79
2024/02/27 01:38:05;;;;;;;0.15;0.15;;;;;;;5.58;70.04;101819.44;5061555;28;20059;-79
2024/02/27 01:40:31;;;;;;;0.15;0.15;;;;;;;5.58;70.14;101824.69;5061833;28;20416;-79
2024/02/27 01:42:58;;;;;;;0.10;0.10;;;;;;;5.57;69.84;101822.91;5061690;28;20052;-78
2024/02/27 01:45:25;;;;;;;0.17;0.17;;;;;;;5.58;70.07;101821.16;5061526;28;20154;-79
2024/02/27 01:47:53;;;;;;;0.43;0.43;;;;;;;5.61;69.99;101834.38;5060200;28;20051;-78
2024/02/27 01:50:22;;;;;;;0.10;0.10;;;;;;;5.56;70.10;101831.66;5054370;28;20045;-78
2024/02/27 01:52:48;;;;;;;0.20;0.20;;;;;;;5.60;69.97;101835.22;5054782;28;20037;-76
2024/02/27 01:55:17;;;;;;;0.20;0.20;;;;;;;5.60;69.98;101832.59;5059009;28;20051;-77
2024/02/27 01:57:43;;;;;;;0.20;0.20;;;;;;;5.60;69.91;101835.22;5060370;28;20024;-77
2024/02/27 02:00:11;;;;;;;0.10;0.10;;;;;;;5.59;69.98;101831.69;5055556;28;20028;-77
2024/02/27 02:02:38;;;;;;;0.10;0.10;;;;;;;5.54;70.21;101833.38;5058564;28;20028;-78
2024/02/27 02:05:07;;;;;;;0.50;0.45;;;;;;;5.50;70.56;101835.06;5060489;28;20029;-78
2024/02/27 02:07:34;;;;;;;1.08;1.05;;;;;;;5.56;69.83;101831.66;5060871;28;20056;-78
2024/02/27 02:10:01;;;;;;;2.03;1.92;;;;;;;5.56;70.10;101828.13;5060533;28;20029;-78
2024/02/27 02:12:27;;;;;;;0.20;0.20;;;;;;;5.55;70.52;101834.25;5060073;28;20167;-78
2024/02/27 02:14:54;;;;;;;0.10;0.10;;;;;;;5.59;70.18;101838.72;5058081;28;20029;-77
2024/02/27 02:17:20;;;;;;;0.20;0.20;;;;;;;5.61;70.13;101837.00;5055865;28;20033;-77
2024/02/27 02:19:46;;;;;;;0.20;0.20;;;;;;;5.57;70.35;101838.69;5056940;28;20492;-77
2024/02/27 02:22:13;;;;;;;0.10;0.10;;;;;;;5.57;70.28;101843.03;5057325;28;20028;-77
2024/02/27 02:24:40;;;;;;;0.15;0.15;;;;;;;5.58;70.41;101847.44;5058765;28;20033;-78
2024/02/27 02:27:07;;;;;;;0.20;0.20;;;;;;;5.55;70.36;101845.66;5059138;28;20527;-77
2024/02/27 02:29:34;;;;;;;0.10;0.10;;;;;;;5.58;70.55;101855.34;5059122;28;20110;-79
2024/02/27 02:32:00;;;;;;;0.20;0.20;;;;;;;5.55;70.56;101856.16;5059695;28;20082;-79
2024/02/27 02:34:26;;;;;;;0.15;0.15;;;;;;;5.61;70.42;101852.78;5061583;28;20432;-79
2024/02/27 02:36:52;;;;;;;0.20;0.20;;;;;;;5.62;70.55;101857.16;5059857;28;20029;-78
2024/02/27 02:39:18;;;;;;;0.20;0.20;;;;;;;5.61;70.45;101861.53;5056856;28;20523;-78
2024/02/27 02:41:45;;;;;;;0.10;0.10;;;;;;;5.60;70.46;101858.88;5056415;28;20040;-77
2024/02/27 02:44:11;;;;;;;0.10;0.10;;;;;;;5.59;70.50;101857.09;5056738;28;20102;-77
2024/02/27 02:46:38;;;;;;;0.28;0.28;;;;;;;5.60;70.67;101858.88;5057040;28;20103;-78
2024/02/27 02:49:05;;;;;;;0.20;0.20;;;;;;;5.58;70.82;101860.59;5059284;28;20025;-78
2024/02/27 02:51:31;;;;;;;0.20;0.20;;;;;;;5.58;70.92;101852.72;5057238;28;20088;-78
2024/02/27 02:53:57;;;;;;;0.10;0.10;;;;;;;5.60;70.83;101861.50;5058368;28;20029;-79
2024/02/27 02:56:24;;;;;;;0.10;0.10;;;;;;;5.58;70.86;101856.25;5051267;28;20024;-78
2024/02/27 02:58:50;;;;;;;2.08;1.95;;;;;;;5.63;70.47;101858.91;5055937;28;20024;-78
2024/02/27 03:01:16;;;;;;;0.17;0.17;;;;;;;5.63;70.46;101853.66;5052347;28;20115;-77
2024/02/27 03:03:42;;;;;;;0.10;0.10;;;;;;;5.61;70.29;101852.78;5055987;28;20515;-78
2024/02/27 03:06:09;;;;;;;0.15;0.15;;;;;;;5.54;70.58;101859.66;5055560;28;20028;-78
2024/02/27 03:08:35;;;;;;;0.10;0.10;;;;;;;5.53;70.45;101857.88;5055913;28;20032;-77
2024/02/27 03:11:02;;;;;;;0.10;0.10;;;;;;;5.50;70.64;101856.09;5055919;28;20090;-78
2024/02/27 03:13:28;;;;;;;0.20;0.20;;;;;;;5.47;70.79;101858.66;5057091;28;20029;-78
2024/02/27 03:15:56;;;;;;;0.10;0.10;;;;;;;5.47;70.99;101857.78;5057144;28;20396;-78
2024/02/27 03:18:22;;;;;;;0.10;0.10;;;;;;;5.47;70.80;101848.16;5057968;28;20029;-79
2024/02/27 03:20:48;;;;;;;0.10;0.10;;;;;;;5.44;70.77;101857.72;5059422;28;20116;-78
2024/02/27 03:23:15;;;;;;;0.20;0.20;;;;;;;5.41;70.89;101858.56;5059396;28;20044;-79
2024/02/27 03:25:41;;;;;;;0.10;0.10;;;;;;;5.40;70.76;101855.91;5058576;28;20029;-79
2024/02/27 03:28:07;;;;;;;0.10;0.10;;;;;;;5.39;70.92;101860.28;5051241;28;20029;-79
2024/02/27 03:30:33;;;;;;;0.15;0.15;;;;;;;5.35;70.88;101868.97;5059754;28;20025;-79
2024/02/27 03:33:00;;;;;;;0.10;0.10;;;;;;;5.32;71.18;101861.91;5059949;28;20024;-79
2024/02/27 03:35:26;;;;;;;0.20;0.20;;;;;;;5.31;71.24;101861.91;5058883;28;20036;-79
2024/02/27 03:37:52;;;;;;;0.20;0.20;;;;;;;5.35;71.22;101868.97;5055468;28;20119;-79
2024/02/27 03:40:18;;;;;;;0.20;0.20;;;;;;;5.35;71.42;101872.47;5066172;28;20111;-77
2024/02/27 03:42:45;;;;;;;0.15;0.15;;;;;;;5.31;71.56;101872.41;5073797;28;20035;-78
2024/02/27 03:45:11;;;;;;;0.10;0.10;;;;;;;5.32;71.43;101872.44;5062413;28;20033;-79
2024/02/27 03:47:37;;;;;;;0.20;0.20;;;;;;;5.31;71.46;101877.66;5059492;28;20434;-79
2024/02/27 03:50:04;;;;;;;0.20;0.20;;;;;;;5.31;71.44;101882.91;5059320;28;20070;-79
2024/02/27 03:52:30;;;;;;;0.10;0.10;;;;;;;5.32;71.68;101877.69;5059699;28;20036;-79
2024/02/27 03:54:56;;;;;;;0.10;0.10;;;;;;;5.28;71.99;101878.50;5059029;28;20028;-79
2024/02/27 03:57:23;;;;;;;0.20;0.20;;;;;;;5.36;71.68;101881.25;5059156;28;20033;-79
2024/02/27 03:59:49;;;;;;;0.20;0.20;;;;;;;5.33;71.88;101892.59;5059200;28;20033;-79
2024/02/27 04:02:16;;;;;;;0.20;0.20;;;;;;;5.30;72.24;101891.66;5059019;28;20059;-78
2024/02/27 04:04:42;;;;;;;0.20;0.20;;;;;;;5.29;72.33;101890.75;5048355;28;20032;-79
2024/02/27 04:07:08;;;;;;;0.10;0.10;;;;;;;5.31;72.46;101898.69;5057940;28;20028;-79
2024/02/27 04:09:35;;;;;;;0.17;0.17;;;;;;;5.36;72.46;101907.53;5054029;28;20032;-78
2024/02/27 04:12:01;;;;;;;0.30;0.30;;;;;;;5.35;72.63;101905.75;5047079;28;20029;-79
2024/02/27 04:14:27;;;;;;;0.20;0.20;;;;;;;5.40;72.18;101906.72;5058248;28;20076;-78
2024/02/27 04:16:53;;;;;;;0.17;0.17;;;;;;;5.41;72.48;101905.88;5048458;28;20021;-79
2024/02/27 04:19:19;;;;;;;0.10;0.10;;;;;;;5.41;72.10;101916.38;5057841;28;20060;-79
2024/02/27 04:21:46;;;;;;;0.20;0.20;;;;;;;5.41;72.10;101916.38;5058067;28;20033;-78
2024/02/27 04:24:13;;;;;;;0.20;0.20;;;;;;;5.42;72.08;101915.53;5064445;28;20072;-78
2024/02/27 04:26:39;;;;;;;0.20;0.20;;;;;;;5.38;72.06;101920.69;5074877;28;20017;-78
2024/02/27 04:29:05;;;;;;;0.10;0.10;;;;;;;5.38;72.20;101926.81;5059527;28;20033;-78
2024/02/27 04:31:31;;;;;;;0.20;0.20;;;;;;;5.41;72.04;101920.75;5055287;28;20492;-78
2024/02/27 04:33:58;;;;;;;0.10;0.10;;;;;;;5.36;71.98;101918.03;5055431;28;20507;-77
2024/02/27 04:36:24;;;;;;;0.15;0.15;;;;;;;5.35;72.13;101930.28;5054679;28;20076;-77
2024/02/27 04:38:50;;;;;;;0.20;0.20;;;;;;;5.31;72.24;101931.09;5055372;28;20036;-77
2024/02/27 04:41:17;;;;;;;0.20;0.20;;;;;;;5.32;72.18;101935.50;5055002;28;20025;-77
2024/02/27 04:43:43;;;;;;;0.35;0.35;;;;;;;5.31;71.89;101933.72;5055477;28;20028;-78
2024/02/27 04:46:09;;;;;;;8.23;1.27;;;;;;;5.28;72.46;101938.03;5055000;28;20071;-77
2024/02/27 04:48:35;;;;;;;0.10;0.10;;;;;;;5.30;72.50;101949.47;5055661;28;20430;-77
2024/02/27 04:51:01;;;;;;;0.17;0.17;;;;;;;5.27;72.59;101954.63;5057636;28;20025;-77
2024/02/27 04:53:27;;;;;;;0.10;0.10;;;;;;;5.28;72.80;101949.44;5058927;28;20082;-78
2024/02/27 04:55:54;;;;;;;0.17;0.17;;;;;;;5.29;72.95;101952.94;5059514;28;20029;-78
2024/02/27 04:58:20;;;;;;;0.20;0.20;;;;;;;5.34;72.87;101956.53;5059183;28;20052;-77
2024/02/27 05:00:46;;;;;;;0.15;0.15;;;;;;;5.38;72.84;101958.38;5058289;28;20056;-78
2024/02/27 05:03:13;;;;;;;0.17;0.17;;;;;;;5.42;72.67;101954.06;5059035;28;20025;-78
2024/02/27 05:05:39;;;;;;;0.13;0.13;;;;;;;5.39;72.79;101959.28;5058399;28;20115;-77
2024/02/27 05:08:05;;;;;;;0.10;0.10;;;;;;;5.40;72.82;101958.41;5058574;28;20511;-78
2024/02/27 05:10:32;;;;;;;0.20;0.20;;;;;;;5.41;72.56;101957.53;5058413;28;20029;-77
2024/02/27 05:13:00;;;;;;;0.13;0.13;;;;;;;5.45;72.45;101965.53;5059260;28;20112;-77
2024/02/27 05:15:26;;;;;;;0.20;0.20;;;;;;;5.41;72.54;101962.78;5058104;28;20025;-77
2024/02/27 05:17:53;;;;;;;0.20;0.20;;;;;;;5.41;72.75;101963.69;5058733;28;20032;-77
2024/02/27 05:20:19;;;;;;;0.50;0.50;;;;;;;5.36;72.58;101970.59;5058537;28;20036;-77
2024/02/27 05:22:45;;;;;;;0.20;0.20;;;;;;;5.34;72.81;101973.19;5058453;28;20046;-77
2024/02/27 05:25:11;;;;;;;8.68;3.20;;;;;;;5.35;72.66;101979.34;5058141;28;20025;-77
2024/02/27 05:27:37;;;;;;;0.10;0.10;;;;;;;5.34;72.82;101972.31;5058523;28;20562;-78
2024/02/27 05:30:06;;;;;;;0.20;0.20;;;;;;;5.35;72.74;101980.22;5058757;28;20428;-78
2024/02/27 05:32:33;;;;;;;0.10;0.10;;;;;;;5.34;72.65;101973.19;5058692;28;20052;-77
2024/02/27 05:34:59;;;;;;;0.10;0.10;;;;;;;5.31;72.55;101967.00;5058439;28;20059;-79
2024/02/27 05:37:25;;;;;;;0.20;0.20;;;;;;;5.32;72.49;101971.38;5059017;28;20489;-77
2024/02/27 05:39:52;;;;;;;0.10;0.10;;;;;;;5.28;72.38;101970.47;5059425;28;20033;-78
2024/02/27 05:42:18;;;;;;;0.20;0.20;;;;;;;5.30;72.50;101975.75;5059637;28;20032;-77
2024/02/27 05:44:44;;;;;;;0.20;0.20;;;;;;;5.26;72.59;101981.78;5058242;28;20029;-78
2024/02/27 05:47:10;;;;;;;0.28;0.28;;;;;;;5.23;72.67;101979.09;5059118;28;20078;-77
2024/02/27 05:49:37;;;;;;;0.20;0.20;;;;;;;5.27;72.58;101975.66;5059751;28;20068;-78
2024/02/27 05:52:03;;;;;;;0.10;0.10;;;;;;;5.30;72.32;101974.00;5054435;28;20028;-79
2024/02/27 05:54:29;;;;;;;0.20;0.20;;;;;;;5.33;72.21;101973.16;5062435;28;20037;-79
2024/02/27 05:56:55;;;;;;;0.20;0.20;;;;;;;5.30;72.40;101981.00;5063656;28;20060;-78
2024/02/27 05:59:21;;;;;;;0.20;0.20;;;;;;;5.26;72.13;101980.06;5075731;28;20017;-77
2024/02/27 06:01:48;;;;;;;1.23;0.75;;;;;;;5.25;72.58;101969.50;5077877;28;20029;-77
2024/02/27 06:04:14;;;;;;;0.25;0.25;;;;;;;5.26;72.38;101973.88;5077227;28;20057;-77
2024/02/27 06:06:40;;;;;;;0.20;0.20;;;;;;;5.23;72.23;101968.59;5076368;28;20021;-77
2024/02/27 06:09:07;;;;;;;0.20;0.20;;;;;;;5.25;72.31;101969.50;5068548;28;20024;-77
2024/02/27 06:11:34;;;;;;;0.20;0.20;;;;;;;5.23;72.29;101963.34;5076911;28;20061;-77
2024/02/27 06:14:02;;;;;;;0.10;0.10;;;;;;;5.22;72.42;101961.56;5077451;28;20037;-77
2024/02/27 06:16:28;;;;;;;0.13;0.13;;;;;;;5.23;72.46;101961.56;5076350;28;20044;-78
2024/02/27 06:18:55;;;;;;;0.43;0.43;;;;;;;5.22;72.30;101958.94;5062884;28;20036;-78
2024/02/27 06:24:07;;;;;;;0.20;0.20;;;;;;;5.15;72.16;101966.69;5060753;28;20037;-78
2024/02/27 06:26:34;;;;;;;0.10;0.10;;;;;;;5.12;72.09;101966.63;5059283;28;20088;-78
2024/02/27 06:29:00;;;;;;;0.20;0.20;;;;;;;5.07;72.10;101973.53;5046141;28;20029;-78
2024/02/27 06:31:27;;;;;;;0.10;0.10;;;;;;;5.05;71.93;101972.59;5052654;28;20530;-78
2024/02/27 06:33:53;;;;;;;0.20;0.20;;;;;;;5.02;72.02;101969.91;5054565;28;20028;-78
2024/02/27 06:36:20;;;;;;;0.20;0.20;;;;;;;5.02;71.89;101969.91;5055353;28;20040;-78
2024/02/27 06:38:46;;;;;;;0.20;0.20;;;;;;;4.98;71.96;101970.69;5056189;28;20021;-77
2024/02/27 06:41:12;;;;;;;0.10;0.10;;;;;;;4.95;71.77;101981.16;5056965;28;20029;-77
2024/02/27 06:43:38;;;;;;;0.10;0.10;;;;;;;4.94;71.81;101979.38;5057857;28;20033;-78
2024/02/27 06:46:05;;;;;;;0.20;0.20;;;;;;;4.90;71.97;101988.94;5059699;28;20531;-79
2024/02/27 06:48:32;;;;;;;0.20;0.20;;;;;;;4.90;71.96;101995.91;5060405;28;20499;-79
2024/02/27 06:50:59;;;;;;;0.10;0.10;;;;;;;4.89;71.95;101991.53;5057494;28;20098;-78
2024/02/27 06:53:25;;;;;;;0.20;0.20;;;;;;;4.82;72.41;101999.28;5053866;28;20048;-77
2024/02/27 06:55:51;;;;;;;0.10;0.10;;;;;;;4.79;72.72;102001.81;5040519;28;20108;-78
2024/02/27 06:58:17;;;;;;;0.20;0.20;;;;;;;4.85;72.41;102020.31;5057336;28;20029;-78
2024/02/27 07:00:43;;;;;;;0.20;0.20;;;;;;;4.82;72.61;102015.03;5048158;28;20040;-77
2024/02/27 07:03:10;;;;;;;1.15;1.10;;;;;;;4.83;73.17;102022.03;5048551;28;20029;-77
2024/02/27 07:05:36;;;;;;;0.20;0.20;;;;;;;4.92;72.85;102025.72;5056038;28;20044;-77
2024/02/27 07:08:02;;;;;;;0.20;0.20;;;;;;;4.94;73.55;102037.16;5050306;28;20033;-78
2024/02/27 07:10:28;;;;;;;0.17;0.17;;;;;;;4.99;73.40;102035.53;5053776;28;20033;-78
2024/02/27 07:12:54;;;;;;;0.20;0.20;;;;;;;4.97;73.97;102035.50;5050374;28;20109;-77
2024/02/27 07:15:21;;;;;;;0.15;0.15;;;;;;;5.06;73.87;102040.06;5056884;28;20520;-78
2024/02/27 07:17:47;;;;;;;0.20;0.20;;;;;;;5.06;74.06;102042.69;5057084;28;20021;-77
2024/02/27 07:20:13;;;;;;;0.15;0.15;;;;;;;5.16;73.87;102036.78;5047501;28;20036;-77
2024/02/27 07:22:39;;;;;;;0.20;0.20;;;;;;;5.25;73.87;102035.22;5047382;28;20033;-78
2024/02/27 07:25:08;;;;;;;0.20;0.20;;;;;;;5.24;73.93;102044.81;5049335;28;20037;-77
2024/02/27 07:27:34;;;;;;;0.20;0.20;;;;;;;5.31;73.86;102051.09;5047790;28;20399;-78
2024/02/27 07:30:00;;;;;;;0.25;0.25;;;;;;;5.35;73.62;102042.41;5048346;28;20059;-78
2024/02/27 07:32:26;;;;;;;0.20;0.20;;;;;;;5.35;74.02;102039.78;5038744;28;20029;-77
2024/02/27 07:34:52;;;;;;;0.17;0.17;;;;;;;5.36;73.98;102038.94;5041029;28;20031;-77
2024/02/27 07:37:19;;;;;;;0.57;0.57;;;;;;;5.37;73.82;102040.72;5048196;28;20063;-77
2024/02/27 07:39:45;;;;;;;1.95;1.85;;;;;;;5.45;73.94;102041.75;5053511;28;20025;-77
2024/02/27 07:42:11;;;;;;;0.20;0.20;;;;;;;5.49;73.57;102046.19;5053608;28;20610;-78
2024/02/27 07:44:37;;;;;;;0.10;0.10;;;;;;;5.51;73.75;102048.88;5046662;28;20403;-76
2024/02/27 07:47:03;;;;;;;0.20;0.20;;;;;;;5.49;73.76;102050.59;5054651;28;20481;-77
2024/02/27 07:49:30;;;;;;;0.20;0.20;;;;;;;5.51;73.82;102051.50;5054407;28;20025;-77
2024/02/27 07:51:56;;;;;;;0.10;0.10;;;;;;;5.48;73.87;102054.06;5046992;28;20075;-78
2024/02/27 07:54:23;;;;;;;0.10;0.10;;;;;;;5.56;74.04;102056.84;5055033;28;20056;-77
2024/02/27 07:56:49;;;;;;;0.20;0.20;;;;;;;5.64;73.86;102060.53;5053919;28;20035;-77
2024/02/27 07:59:15;;;;;;;0.17;0.17;;;;;;;5.66;73.78;102061.44;5053064;28;20064;-77
2024/02/27 08:01:41;;;;;;;0.65;0.65;;;;;;;5.72;73.87;102064.22;5054212;28;20033;-77
2024/02/27 08:04:08;;;;;;;0.10;0.10;;;;;;;5.79;73.69;102057.31;5054028;28;20109;-78
2024/02/27 08:06:34;;;;;;;0.20;0.20;;;;;;;5.83;73.68;102070.56;5053929;28;20029;-78
2024/02/27 08:09:00;;;;;;;0.20;0.20;;;;;;;5.88;74.08;102064.50;5064757;28;20039;-78
2024/02/27 08:11:26;;;;;;;0.20;0.20;;;;;;;5.99;73.71;102062.97;5058226;28;20502;-78
2024/02/27 08:13:53;;;;;;;0.20;0.20;;;;;;;6.04;73.38;102053.41;5058421;28;20025;-77
2024/02/27 08:16:20;;;;;;;0.10;0.10;;;;;;;6.08;73.25;102052.63;5056413;28;20100;-78
2024/02/27 08:18:46;;;;;;;1.05;1.05;;;;;;;6.13;73.20;102060.59;5058620;28;20021;-78
2024/02/27 08:21:12;;;;;;;0.10;0.10;;;;;;;6.23;73.28;102061.66;5058482;28;20048;-78
2024/02/27 08:23:39;;;;;;;0.10;0.10;;;;;;;6.26;73.10;102064.34;5056891;28;20040;-78
2024/02/27 08:26:06;;;;;;;0.80;0.80;;;;;;;6.30;73.25;102063.53;5059746;28;20078;-77
2024/02/27 08:28:33;;;;;;;0.10;0.10;;;;;;;6.38;72.86;102069.84;5061627;28;20104;-78
2024/02/27 08:31:03;;;;;;;0.15;0.15;;;;;;;6.43;72.84;102070.78;5061419;28;20037;-78
2024/02/27 08:33:30;;;;;;;0.47;0.47;;;;;;;6.44;72.76;102083.09;5061050;28;20165;-78
2024/02/27 08:35:56;;;;;;;0.13;0.13;;;;;;;6.52;72.94;102071.78;5062720;28;20115;-78
2024/02/27 08:38:22;;;;;;;0.15;0.15;;;;;;;6.58;72.45;102071.88;5063280;28;20477;-77
2024/02/27 08:40:48;;;;;;;0.30;0.30;;;;;;;6.64;72.55;102064.09;5062597;28;20032;-78
2024/02/27 08:43:15;;;;;;;0.20;0.20;;;;;;;6.68;72.66;102071.19;5053981;28;20048;-78
2024/02/27 08:45:43;;;;;;;0.20;0.20;;;;;;;6.75;72.90;102078.34;5060021;28;20399;-79
2024/02/27 08:48:09;;;;;;;0.20;0.20;;;;;;;6.80;72.90;102074.03;5055741;28;20052;-78
2024/02/27 08:50:35;;;;;;;0.20;0.20;;;;;;;6.87;72.25;102063.59;5055658;28;20040;-78
2024/02/27 08:53:02;;;;;;;0.10;0.10;;;;;;;6.92;72.42;102069.78;5057249;28;20091;-77
2024/02/27 08:55:30;;;;;;;0.15;0.15;;;;;;;6.97;72.44;102068.97;5057393;28;20051;-77
2024/02/27 08:57:56;;;;;;;0.10;0.10;;;;;;;7.04;72.68;102064.72;5058417;28;20031;-77
2024/02/27 09:00:23;;;;;;;0.10;0.10;;;;;;;7.11;72.73;102063.91;5059021;28;20033;-77
2024/02/27 09:02:49;;;;;;;0.20;0.20;;;;;;;7.17;72.69;102055.22;5058713;28;20037;-78
2024/02/27 09:05:15;;;;;;;0.20;0.20;;;;;;;7.24;72.04;102069.34;5058815;28;20028;-78
2024/02/27 09:07:42;;;;;;;0.55;0.55;;;;;;;7.31;72.03;102060.66;5061028;28;20059;-78
2024/02/27 09:10:10;;;;;;;0.10;0.10;;;;;;;7.41;72.22;102059.03;5061418;28;20114;-78
2024/02/27 09:12:36;;;;;;;3.28;1.85;;;;;;;7.43;72.23;102063.47;5061063;28;20029;-78
2024/02/27 09:15:03;;;;;;;0.10;0.10;;;;;;;7.54;71.61;102067.97;5060019;28;20033;-78
2024/02/27 09:17:31;;;;;;;0.10;0.10;;;;;;;7.65;71.85;102063.75;5061080;28;20121;-78
2024/02/27 09:19:58;;;;;;;1.17;1.05;;;;;;;7.81;71.72;102069.19;5060867;28;20025;-78
2024/02/27 09:22:24;;;;;;;0.20;0.20;;;;;;;7.98;71.47;102078.16;5056666;28;20055;-77
2024/02/27 09:24:51;;;;;;;0.10;0.10;;;;;;;8.22;71.78;102069.63;5056892;28;20053;-78
2024/02/27 09:27:17;;;;;;;0.13;0.13;;;;;;;8.46;71.74;102067.16;5058315;28;20039;-78
2024/02/27 09:29:45;;;;;;;0.55;0.55;;;;;;;8.68;71.26;102060.34;5059631;28;20063;-78
2024/02/27 09:32:13;;;;;;;0.10;0.10;;;;;;;8.85;71.18;102057.81;5061902;28;20033;-78
2024/02/27 09:34:41;;;;;;;0.95;0.95;;;;;;;9.00;70.74;102054.41;5060242;28;20149;-78
2024/02/27 09:37:07;;;;;;;0.10;0.10;;;;;;;9.01;69.57;102049.13;5059994;28;20048;-79
2024/02/27 09:39:34;;;;;;;0.10;0.10;;;;;;;9.05;69.56;102045.59;5062035;28;20031;-78
2024/02/27 09:42:15;;;;;;;0.15;0.15;;;;;;;9.16;69.23;102052.69;5061743;28;20029;-79
2024/02/27 09:44:44;;;;;;;0.15;0.15;;;;;;;9.16;68.60;102063.28;5061369;28;20025;-77
2024/02/27 09:47:13;;;;;;;0.10;0.10;;;;;;;9.22;68.87;102055.38;5061824;28;20028;-79
2024/02/27 09:49:42;;;;;;;0.75;0.75;;;;;;;9.22;67.00;102058.03;5061829;28;20503;-78
2024/02/27 09:52:13;;;;;;;1.45;1.10;;;;;;;9.27;67.55;102072.19;5061653;28;20032;-79
2024/02/27 09:54:40;;;;;;;0.93;0.93;;;;;;;9.32;67.32;102066.88;5049399;28;20029;-78
2024/02/27 09:57:07;;;;;;;0.57;0.57;;;;;;;9.38;67.70;102070.47;5056066;28;20028;-79
2024/02/27 09:59:37;;;;;;;0.13;0.13;;;;;;;9.51;68.34;102063.47;5058571;28;20025;-78
2024/02/27 10:04:46;;;;;;;0.20;0.20;;;;;;;9.67;66.70;102060.84;5114303;27;20392;-78
2024/02/27 10:07:14;;;;;;;0.10;0.10;;;;;;;9.77;66.65;102061.75;5114428;28;20478;-78
2024/02/27 10:09:46;;;;;;;0.13;0.13;;;;;;;9.83;64.52;102061.78;5114111;28;20034;-78
2024/02/27 10:12:13;;;;;;;0.45;0.45;;;;;;;9.87;65.19;102059.16;5124501;28;20028;-78
2024/02/27 10:14:40;;;;;;;0.10;0.10;;;;;;;9.80;63.55;102059.16;5125962;28;20028;-79
2024/02/27 10:17:07;;;;;;;0.10;0.10;;;;;;;9.80;64.14;102057.38;5110728;28;20140;-78
2024/02/27 10:19:35;;;;;;;0.10;0.10;;;;;;;9.75;63.78;102063.56;5117137;28;20406;-79
2024/02/27 10:22:02;;;;;;;0.40;0.40;;;;;;;9.73;63.74;102055.56;5117400;28;20028;-79
2024/02/27 10:24:28;;;;;;;0.17;0.17;;;;;;;9.73;64.45;102066.16;5116978;28;20475;-79
2024/02/27 10:26:55;;;;;;;0.20;0.20;;;;;;;9.76;64.57;102067.94;5115922;28;20502;-79
2024/02/27 10:29:24;;;;;;;0.80;0.80;;;;;;;9.74;65.29;102067.94;5109089;28;20028;-79
2024/02/27 10:31:51;;;;;;;0.20;0.20;;;;;;;9.73;64.87;102070.59;5116925;28;20024;-79
2024/02/27 10:34:19;;;;;;;0.20;0.20;;;;;;;9.71;65.51;102068.81;5116614;28;20091;-79
2024/02/27 10:37:02;;;;;;;0.10;0.10;;;;;;;9.70;64.77;102064.41;5108569;28;20030;-78
2024/02/27 10:39:32;;;;;;;0.10;0.10;;;;;;;9.79;64.94;102065.31;5118571;28;20036;-79
2024/02/27 10:41:59;;;;;;;0.10;0.10;;;;;;;9.87;64.48;102059.16;5114807;28;20087;-81
2024/02/27 10:44:27;;;;;;;0.20;0.20;;;;;;;10.02;64.22;102053.00;5114098;28;20050;-79
2024/02/27 10:46:57;;;;;;;0.20;0.20;;;;;;;10.12;64.47;102058.31;5108940;28;20477;-77
2024/02/27 10:49:24;;;;;;;0.43;0.43;;;;;;;10.25;65.14;102054.81;5110762;28;20072;-80
2024/02/27 10:51:53;;;;;;;0.52;0.52;;;;;;;10.36;64.96;102047.78;5116385;28;20180;-79
2024/02/27 10:54:19;;;;;;;0.10;0.10;;;;;;;10.46;64.50;102050.44;5117811;28;20031;-79
2024/02/27 10:56:46;;;;;;;0.10;0.10;;;;;;;10.51;64.22;102052.19;5124680;28;20030;-79
2024/02/27 10:59:13;;;;;;;0.20;0.20;;;;;;;10.55;63.72;102055.72;5125833;28;20032;-78
2024/02/27 11:01:42;;;;;;;0.35;0.30;;;;;;;10.51;62.49;102051.31;5118602;28;20054;-78
2024/02/27 11:04:17;;;;;;;0.10;0.10;;;;;;;10.71;63.43;102042.47;5126287;28;20024;-80
2024/02/27 11:06:48;;;;;;;0.70;0.70;;;;;;;10.78;62.93;102038.91;5124169;28;20036;-79
2024/02/27 11:09:15;;;;;;;0.20;0.20;;;;;;;10.83;61.88;102037.16;5121843;28;20024;-80
2024/02/27 11:11:45;;;;;;;1.05;1.05;;;;;;;10.94;64.00;102038.00;5126237;28;20032;-79
2024/02/27 11:14:14;;;;;;;0.10;0.10;;;;;;;10.99;60.19;102036.22;5115957;28;20020;-80
2024/02/27 11:16:46;;;;;;;0.10;0.10;;;;;;;11.14;61.75;102037.06;5103212;28;20485;-79
2024/02/27 11:19:30;;;;;;;0.10;0.10;;;;;;;11.17;62.76;102034.41;5104052;28;20028;-79
2024/02/27 11:21:56;;;;;;;1.08;0.95;;;;;;;11.25;59.35;102039.69;5103655;28;20047;-80
2024/02/27 11:24:23;;;;;;;1.75;1.50;;;;;;;11.37;60.71;102033.47;5103205;28;20111;-79
2024/02/27 11:26:49;;;;;;;0.10;0.10;;;;;;;11.47;59.56;102032.53;5102996;28;20047;-80
2024/02/27 11:29:17;;;;;;;0.10;0.10;;;;;;;11.51;58.89;102036.03;5104133;28;20059;-80
2024/02/27 11:31:44;;;;;;;0.10;0.10;;;;;;;11.56;58.97;102034.25;5104244;28;20094;-80
2024/02/27 11:34:10;;;;;;;0.57;0.57;;;;;;;11.61;60.14;102033.34;5104167;28;20020;-80